Nearby METAR Reports

 

KTEB - Teterboro, New Jersey, USA
Distance from station: ENE 2mi, 4km
Updated: 09/25/2020 5:51pm
Clear
Clear
 Wind from S
Wind: S 9 mph , 15 km/h
Temperature: 73°F , 23°C
Dew Point: 61°F , 16°C
Humidity: 65%
Barometer: 30.06 inHg , 1017.9 hPa
Clouds: Clear
Visibility: 10 miles , 16 km
2020/09/25 21:51 KTEB 252151Z 18008KT 10SM CLR 23/16 A3006 RMK AO2 SLP178 T02330156
KNYC - Nyc/Central Park, New York, USA
Distance from station: SE 8mi, 13km
Updated: 09/25/2020 5:51pm
Clear
Clear
 Wind from calm
Wind: Calm
Temperature: 73°F , 23°C
Dew Point: 61°F , 16°C
Humidity: 65%
Barometer: 30.11 inHg , 1019.6 hPa
Clouds: Clear
Visibility: 9 miles , 14 km
2020/09/25 21:51 KNYC 252151Z AUTO 00000KT 9SM CLR 23/16 A3011 RMK AO2 SLP186 T02280156 $
 
KCDW - Caldwell, New Jersey, USA
Distance from station: WNW 10mi, 17km
Updated: 09/25/2020 5:53pm
Clear
Clear
 Wind from WSW
Wind: WSW 3 mph , 6 km/h
Temperature: 79°F , 26°C
Dew Point: 57°F , 14°C
Humidity: 48%
Barometer: 30.07 inHg , 1018.3 hPa
Clouds: Clear
Visibility: 10 miles , 16 km
2020/09/25 21:53 KCDW 252153Z 25003KT 10SM CLR 26/14 A3007 RMK AO2 SLP187 T02560139
KLGA - Nyc/La Guardia, New York, USA
Distance from station: ESE 12mi, 19km
Updated: 09/25/2020 5:51pm
Mostly cloudy
Mostly cloudy
 Wind from S
Wind: S 10 mph , 17 km/h
Temperature: 73°F , 23°C
Dew Point: 59°F , 15°C
Humidity: 61%
Barometer: 30.08 inHg , 1018.6 hPa
Clouds: Mostly cloudy
Visibility: 10 miles , 16 km
Cloud details: Mostly cloudy 25000 ft
2020/09/25 21:51 KLGA 252151Z 18009KT 10SM BKN250 23/15 A3008 RMK AO2 SLP184 T02330150
 
KEWR - Newark, New Jersey, USA
Distance from station: SSW 12mi, 20km
Updated: 09/25/2020 5:51pm
Mostly cloudy
Mostly cloudy
 Wind from SE
Wind: SE 6 mph , 9 km/h
Temperature: 75°F , 24°C
Dew Point: 61°F , 16°C
Humidity: 61%
Barometer: 30.07 inHg , 1018.3 hPa
Clouds: Mostly cloudy
Visibility: 10 miles , 16 km
Cloud details: Few Clouds 4500 ft
Mostly cloudy 25000 ft
2020/09/25 21:51 KEWR 252151Z 14005KT 10SM FEW045 BKN250 24/16 A3007 RMK AO2 SLP183 T02390161
KMMU - Morristown Muni, New Jersey, USA
Distance from station: WSW 18mi, 29km
Updated: 09/25/2020 5:50pm
Partly cloudy
Partly cloudy
 Wind from SSW
Wind: SSW 6 mph , 9 km/h
Temperature: 77°F , 25°C
Dew Point: 63°F , 17°C
Humidity: 61%
Barometer: 30.07 inHg , 1018.3 hPa
Clouds: Partly cloudy
Visibility: 10 miles , 16 km
Cloud details: Partly cloudy 25000 ft
2020/09/25 21:50 KMMU 252150Z 20005KT 10SM SCT250 25/17 A3007
 
KJFK - Nyc/Jfk Arpt, New York, USA
Distance from station: SE 23mi, 36km
Updated: 09/25/2020 5:51pm
Mostly cloudy
Mostly cloudy
 Wind from S
Wind: S 9 mph , 15 km/h
Temperature: 70°F , 21°C
Dew Point: 64°F , 18°C
Humidity: 83%
Barometer: 30.10 inHg , 1019.3 hPa
Clouds: Mostly cloudy
Visibility: 10 miles , 16 km
Cloud details: Mostly cloudy 25000 ft
2020/09/25 21:51 KJFK 252151Z 17008KT 10SM BKN250 21/18 A3010 RMK AO2 SLP192 T02060178 $
KHPN - White Plains, New York, USA
Distance from station: NE 25mi, 40km
Updated: 09/25/2020 5:56pm
Clear
Clear
 Wind from S
Wind: S 7 mph , 11 km/h
Temperature: 72°F , 22°C
Dew Point: 59°F , 15°C
Humidity: 65%
Barometer: 30.08 inHg , 1018.6 hPa
Clouds: Clear
Visibility: 9 miles , 14 km
2020/09/25 21:56 KHPN 252156Z 17006KT 9SM CLR 22/15 A3008 RMK AO2 SLP184 T02170150
 
KSMQ - Somerville, New Jersey, USA
Distance from station: WSW 34mi, 55km
Updated: 09/25/2020 5:53pm
Clear
Clear
 Wind from calm
Wind: Calm
Temperature: 72°F , 22°C
Dew Point: 63°F , 17°C
Humidity: 73%
Barometer: 30.06 inHg , 1017.9 hPa
Clouds: Clear
Visibility: 10 miles , 16 km
2020/09/25 21:53 KSMQ 252153Z AUTO 00000KT 10SM CLR 22/17 A3006 RMK AO2 SLP179 T02170172
K12N - Andover, New Jersey, USA
Distance from station: WNW 36mi, 57km
Updated: 09/25/2020 5:54pm

 Wind from calm
Wind: Calm
Temperature: 72°F , 22°C
Dew Point: 63°F , 17°C
Humidity: 73%
Barometer: 30.08 inHg , 1018.6 hPa
2020/09/25 21:54 K12N 252154Z AUTO 00000KT 22/17 A3008 RMK AO1 SLP183 T02220167
 
KFRG - Farmingdale, New York, USA
Distance from station: ESE 36mi, 58km
Updated: 09/25/2020 5:53pm
Clear
Clear
 Wind from S
Wind: S 8 mph , 13 km/h
Temperature: 70°F , 21°C
Dew Point: 63°F , 17°C
Humidity: 78%
Barometer: 30.10 inHg , 1019.3 hPa
Clouds: Clear
Visibility: 10 miles , 16 km
2020/09/25 21:53 KFRG 252153Z AUTO 19007KT 10SM CLR 21/17 A3010 RMK AO2 SLP191 T02060172
KFWN - Sussex, New Jersey, USA
Distance from station: NW 37mi, 60km
Updated: 09/25/2020 5:53pm
Clear
Clear
 Wind from calm
Wind: Calm
Temperature: 73°F , 23°C
Dew Point: 61°F , 16°C
Humidity: 65%
Barometer: 30.07 inHg , 1018.3 hPa
Clouds: Clear
Visibility: 10 miles , 16 km
2020/09/25 21:53 KFWN 252153Z AUTO 00000KT 10SM CLR 23/16 A3007 RMK AO2 SLP182 T02330156
 
KSWF - Newburgh/Stewart, New York, USA
Distance from station: 0 45mi, 72km
Updated: 09/25/2020 5:45pm
Partly cloudy
Partly cloudy
 Wind from varies
Wind: varies 6 mph , 9 km/h
Temperature: 75°F , 24°C
Dew Point: 57°F , 14°C
Humidity: 54%
Barometer: 30.07 inHg , 1018.3 hPa
Clouds: Partly cloudy
Visibility: 10 miles , 16 km
Cloud details: Partly cloudy 12000 ft
2020/09/25 21:45 KSWF 252145Z VRB05KT 10SM SCT120 24/14 A3007
KMGJ - Montgomery, New York, USA
Distance from station: NNW 47mi, 75km
Updated: 09/25/2020 5:54pm
Mostly cloudy
Mostly cloudy
 Wind from SSW
Wind: SSW 5 mph , 7 km/h
Temperature: 75°F , 24°C
Dew Point: 57°F , 14°C
Humidity: 54%
Barometer: 30.05 inHg , 1017.6 hPa
Clouds: Mostly cloudy
Visibility: 10 miles , 16 km
Cloud details: Mostly cloudy 5000 ft
2020/09/25 21:54 KMGJ 252154Z AUTO 20004KT 10SM BKN050 24/14 A3005 RMK AO2 SLP175 T02440144
 
KBLM - Belmar/Farmdale, New Jersey, USA
Distance from station: S 47mi, 76km
Updated: 09/25/2020 5:56pm
Clear
Clear
 Wind from SE
Wind: SE 8 mph , 13 km/h
Temperature: 72°F , 22°C
Dew Point: 66°F , 19°C
Humidity: 83%
Barometer: 30.10 inHg , 1019.3 hPa
Clouds: Clear
Visibility: 10 miles , 16 km
2020/09/25 21:56 KBLM 252156Z AUTO 14007KT 10SM CLR 22/19 A3010 RMK AO2 SLPNO T02220194
KDXR - Danbury, Connecticut, USA
Distance from station: NE 47mi, 76km
Updated: 09/25/2020 5:53pm
Clear
Clear
 Wind from SSE
Wind: SSE 7 mph , 11 km/h
Temperature: 73°F , 23°C
Dew Point: 57°F , 14°C
Humidity: 57%
Barometer: 30.09 inHg , 1019 hPa
Clouds: Clear
Visibility: 10 miles , 16 km
2020/09/25 21:53 KDXR 252153Z 15006KT 10SM CLR 23/14 A3009 RMK AO2 SLP186 T02280144
 
KISP - Islip, New York, USA
Distance from station: E 52mi, 83km
Updated: 09/25/2020 5:56pm
Mostly cloudy
Mostly cloudy
 Wind from S
Wind: S 6 mph , 9 km/h
Temperature: 68°F , 20°C
Dew Point: 64°F , 18°C
Humidity: 88%
Barometer: 30.10 inHg , 1019.3 hPa
Clouds: Mostly cloudy
Visibility: 7 miles , 11 km
Cloud details: Few Clouds 4000 ft
Few Clouds 20000 ft
Mostly cloudy 25000 ft
2020/09/25 21:56 KISP 252156Z 19005KT 7SM FEW040 FEW200 BKN250 20/18 A3010 RMK AO2 SLP191 T02000178
KBDR - Bridgeport, Connecticut, USA
Distance from station: ENE 54mi, 87km
Updated: 09/25/2020 5:52pm
Haze, Clear
Haze, Clear
 Wind from SSE
Wind: SSE 7 mph , 11 km/h
Temperature: 72°F , 22°C
Dew Point: 64°F , 18°C
Humidity: 78%
Barometer: 30.08 inHg , 1018.6 hPa
Summary: Haze
Clouds: Clear
Visibility: 5 miles , 8 km
2020/09/25 21:52 KBDR 252152Z 15006KT 5SM HZ CLR 22/18 A3008 RMK AO2 SLP186 T02220178
 
KTTN - Trenton, New Jersey, USA
Distance from station: SW 55mi, 88km
Updated: 09/25/2020 5:53pm
Clear
Clear
 Wind from S
Wind: S 7 mph , 11 km/h
Temperature: 72°F , 22°C
Dew Point: 57°F , 14°C
Humidity: 61%
Barometer: 30.07 inHg , 1018.3 hPa
Clouds: Clear
Visibility: 10 miles , 16 km
2020/09/25 21:53 KTTN 252153Z 19006KT 10SM CLR 22/14 A3007 RMK AO2 SLP177 T02170144
KPOU - Poughkeepsie, New York, USA
Distance from station: N 55mi, 89km
Updated: 09/25/2020 5:53pm
Clear
Clear
 Wind from SSE
Wind: SSE 5 mph , 7 km/h
Temperature: 79°F , 26°C
Dew Point: 55°F , 13°C
Humidity: 45%
Barometer: 30.05 inHg , 1017.6 hPa
Clouds: Clear
Visibility: 10 miles , 16 km
2020/09/25 21:53 KPOU 252153Z 16004KT 10SM CLR 26/13 A3005 RMK AO2 SLP170 T02560133
 
KNEL - Lakehurst Nas, New Jersey, USA
Distance from station: SSW 59mi, 95km
Updated: 09/25/2020 6:00pm
Clear
Clear
 Wind from SSW
Wind: SSW 7 mph , 11 km/h
Temperature: 73°F , 23°C
Dew Point: 64°F , 18°C
Humidity: 74%
Barometer: 30.08 inHg , 1018.6 hPa
Clouds: Clear
Visibility: 10 miles , 16 km
2020/09/25 22:00 KNEL 252200Z 20006KT 10SM CLR 23/18 A3008 RMK AO2 SLPNO T02330178 $
KWRI - Wrightst/Mcguire, New Jersey, USA
Distance from station: SSW 63mi, 102km
Updated: 09/25/2020 5:56pm
Clear
Clear
 Wind from S
Wind: S 6 mph , 9 km/h
Temperature: 72°F , 22°C
Dew Point: 61°F , 16°C
Humidity: 69%
Barometer: 30.09 inHg , 1019 hPa
Clouds: Clear
Visibility: 10 miles , 16 km
2020/09/25 21:56 KWRI 252156Z AUTO 19005KT 10SM CLR 22/16 A3009 RMK AO2 SLP189 T02220164 CHINO RWY24 $
 
KHWV - Shirley, New York, USA
Distance from station: E 64mi, 103km
Updated: 09/25/2020 5:56pm
Haze, Clear
Haze, Clear
 Wind from S
Wind: S 7 mph , 11 km/h
Temperature: 70°F , 21°C
Dew Point: 63°F , 17°C
Humidity: 78%
Barometer: 30.10 inHg , 1019.3 hPa
Summary: Haze
Clouds: Clear
Visibility: 6 miles , 10 km
2020/09/25 21:56 KHWV 252156Z AUTO 19006KT 6SM HZ CLR 21/17 A3010 RMK AO2 SLP194 T02060167
KMJX - Toms River, New Jersey, USA
Distance from station: S 64mi, 104km
Updated: 09/25/2020 5:56pm
Clear
Clear
 Wind from S
Wind: S 5 mph , 7 km/h
Temperature: 72°F , 22°C
Dew Point: 64°F , 18°C
Humidity: 78%
Barometer: 30.10 inHg , 1019.3 hPa
Clouds: Clear
Visibility: 10 miles , 16 km
2020/09/25 21:56 KMJX 252156Z AUTO 18004KT 10SM CLR 22/18 A3010 RMK AO2 SLP196 T02170178
 
KDYL - Doylestown, Pennsylvania, USA
Distance from station: SW 65mi, 104km
Updated: 09/25/2020 5:54pm
Clear
Clear
 Wind from S
Wind: S 3 mph , 6 km/h
Temperature: 73°F , 23°C
Dew Point: 59°F , 15°C
Humidity: 61%
Barometer: 30.08 inHg , 1018.6 hPa
Clouds: Clear
Visibility: 8 miles , 13 km
2020/09/25 21:54 KDYL 252154Z AUTO 17003KT 8SM CLR 23/15 A3008 RMK AO2 SLP183 T02280150
KOXC - Oxford/Waterbury, Connecticut, USA
Distance from station: NE 65mi, 105km
Updated: 09/25/2020 5:51pm
Clear
Clear
 Wind from S
Wind: S 7 mph , 11 km/h
Temperature: 72°F , 22°C
Dew Point: 57°F , 14°C
Humidity: 61%
Barometer: 30.10 inHg , 1019.3 hPa
Clouds: Clear
Visibility: 10 miles , 16 km
2020/09/25 21:51 KOXC 252151Z 17006KT 10SM CLR 22/14 A3010 RMK AO2 SLP203 T02170144
 
KMSV - Monticello, New York, USA
Distance from station: NNW 69mi, 111km
Updated: 09/25/2020 5:56pm
Clear
Clear
 Wind from S
Wind: S 7 mph , 11 km/h
Temperature: 72°F , 22°C
Dew Point: 57°F , 14°C
Humidity: 61%
Barometer: 30.10 inHg , 1019.3 hPa
Clouds: Clear
Visibility: 10 miles , 16 km
2020/09/25 21:56 KMSV 252156Z AUTO 18006KT 10SM CLR 22/14 A3010 RMK AO2 SLP191 T02220139
KHVN - New Haven/Tweed, Connecticut, USA
Distance from station: ENE 70mi, 112km
Updated: 09/25/2020 5:53pm
Haze, Clear
Haze, Clear
 Wind from SE
Wind: SE 5 mph , 7 km/h
Temperature: 73°F , 23°C
Dew Point: 63°F , 17°C
Humidity: 69%
Barometer: 30.09 inHg , 1019 hPa
Summary: Haze
Clouds: Clear
Visibility: 6 miles , 10 km
2020/09/25 21:53 KHVN 252153Z 14004KT 6SM HZ CLR 23/17 A3009 RMK AO2 SLP187 T02280172
 
KMPO - Mt. Pocono, Pennsylvania, USA
Distance from station: WNW 70mi, 113km
Updated: 09/25/2020 5:53pm
Clear
Clear
 Wind from S
Wind: S 5 mph , 7 km/h
Temperature: 66°F , 19°C
Dew Point: 57°F , 14°C
Humidity: 73%
Barometer: 30.12 inHg , 1020 hPa
Clouds: Clear
Visibility: 10 miles , 16 km
2020/09/25 21:53 KMPO 252153Z AUTO 17004KT 10SM CLR 19/14 A3012 RMK AO2 SLP198 T01940139
KPNE - Philadelphia/Ne, Pennsylvania, USA
Distance from station: SW 72mi, 116km
Updated: 09/25/2020 5:54pm
Clear
Clear
 Wind from SSW
Wind: SSW 5 mph , 7 km/h
Temperature: 75°F , 24°C
Dew Point: 57°F , 14°C
Humidity: 54%
Barometer: 30.10 inHg , 1019.3 hPa
Clouds: Clear
Visibility: 10 miles , 16 km
2020/09/25 21:54 KPNE 252154Z AUTO 20004KT 10SM CLR 24/14 A3010 RMK AO2 SLP192 T02390139
 
KABE - Allentown, Pennsylvania, USA
Distance from station: W 73mi, 117km
Updated: 09/25/2020 5:51pm
Clear
Clear
 Wind from S
Wind: S 8 mph , 13 km/h
Temperature: 75°F , 24°C
Dew Point: 59°F , 15°C
Humidity: 57%
Barometer: 30.07 inHg , 1018.3 hPa
Clouds: Clear
Visibility: 10 miles , 16 km
2020/09/25 21:51 KABE 252151Z 18007KT 10SM CLR 24/15 A3007 RMK AO2 SLP182 T02440150
KUKT - Quakertown Arp, Pennsylvania, USA
Distance from station: WSW 74mi, 119km
Updated: 09/25/2020 5:55pm
Clear
Clear
 Wind from calm
Wind: Calm
Temperature: 75°F , 24°C
Dew Point: 57°F , 14°C
Humidity: 54%
Barometer: 30.09 inHg , 1019 hPa
Clouds: Clear
Visibility: 10 miles , 16 km
2020/09/25 21:55 KUKT 252155Z AUTO 00000KT 10SM CLR 24/14 A3009 RMK A01
 
KVAY - Mount Holly, New Jersey, USA
Distance from station: SSW 75mi, 120km
Updated: 09/25/2020 5:54pm
Clear
Clear
 Wind from varies
Wind: varies 3 mph , 6 km/h
Temperature: 72°F , 22°C
Dew Point: 61°F , 16°C
Humidity: 69%
Barometer: 30.09 inHg , 1019 hPa
Clouds: Clear
Visibility: 10 miles , 16 km
2020/09/25 21:54 KVAY 252154Z AUTO VRB03KT 10SM CLR 22/16 A3009 RMK AO2 SLP188 T02220156
KXLL - Allentown Queen, Pennsylvania, USA
Distance from station: WSW 76mi, 122km
Updated: 09/25/2020 5:55pm
Clear
Clear
 Wind from SE
Wind: SE 3 mph , 6 km/h
Temperature: 73°F , 23°C
Dew Point: 59°F , 15°C
Humidity: 61%
Barometer: 30.08 inHg , 1018.6 hPa
Clouds: Clear
Visibility: 10 miles , 16 km
2020/09/25 21:55 KXLL 252155Z AUTO 14003KT 10SM CLR 23/15 A3008 RMK AO2
 
KFOK - Westhampton Beac, New York, USA
Distance from station: E 77mi, 124km
Updated: 09/25/2020 5:53pm
Clear
Clear
 Wind from SSW
Wind: SSW 7 mph , 11 km/h
Temperature: 66°F , 19°C
Dew Point: 63°F , 17°C
Humidity: 88%
Barometer: 30.12 inHg , 1020 hPa
Clouds: Clear
Visibility: 10 miles , 16 km
2020/09/25 21:53 KFOK 252153Z 21006KT 10SM CLR 19/17 A3012 RMK AO2 SLP197 T01940172
KLOM - Philly Wings F, Pennsylvania, USA
Distance from station: SW 79mi, 128km
Updated: 09/25/2020 5:55pm
Clear
Clear
 Wind from S
Wind: S 5 mph , 7 km/h
Temperature: 72°F , 22°C
Dew Point: 61°F , 16°C
Humidity: 69%
Barometer: 30.09 inHg , 1019 hPa
Clouds: Clear
Visibility: 10 miles , 16 km
2020/09/25 21:55 KLOM 252155Z AUTO 18004KT 10SM CLR 22/16 A3009 RMK AO2 T02240155
 
KMMK - Meriden, Connecticut, USA
Distance from station: NE 80mi, 128km
Updated: 09/25/2020 5:53pm
Clear
Clear
 Wind from S
Wind: S 9 mph , 15 km/h
Temperature: 73°F , 23°C
Dew Point: 55°F , 13°C
Humidity: 53%
Barometer: 30.07 inHg , 1018.3 hPa
Clouds: Clear
Visibility: 10 miles , 16 km
2020/09/25 21:53 KMMK 252153Z AUTO 19008KT 10SM CLR 23/13 A3007 RMK AO2 SLP182 T02330128 TSNO
KPTW - Pottstown, Pennsylvania, USA
Distance from station: WSW 88mi, 141km
Updated: 09/25/2020 5:54pm
Clear
Clear
 Wind from S
Wind: S 6 mph , 9 km/h
Temperature: 73°F , 23°C
Dew Point: 57°F , 14°C
Humidity: 57%
Barometer: 30.10 inHg , 1019.3 hPa
Clouds: Clear
Visibility: 10 miles , 16 km
2020/09/25 21:54 KPTW 252154Z AUTO 19005KT 10SM CLR 23/14 A3010 RMK AO2 SLP187 T02280144
 
KSNC - Chester, Connecticut, USA
Distance from station: ENE 90mi, 146km
Updated: 09/25/2020 5:55pm
Clear
Clear
 Wind from S
Wind: S 5 mph , 7 km/h
Temperature: 72°F , 22°C
Dew Point: 61°F , 16°C
Humidity: 69%
Barometer: 30.10 inHg , 1019.3 hPa
Clouds: Clear
Visibility: 8 miles , 13 km
2020/09/25 21:55 KSNC 252155Z AUTO 19004KT 8SM CLR 22/16 A3010 RMK AO2
KPHL - Philadelphia, Pennsylvania, USA
Distance from station: SW 91mi, 146km
Updated: 09/25/2020 5:54pm
Mostly cloudy
Mostly cloudy
 Wind from SSW
Wind: SSW 8 mph , 13 km/h
Temperature: 73°F , 23°C
Dew Point: 61°F , 16°C
Humidity: 65%
Barometer: 30.09 inHg , 1019 hPa
Clouds: Mostly cloudy
Visibility: 10 miles , 16 km
Cloud details: Few Clouds 3000 ft
Mostly cloudy 22000 ft
Mostly cloudy 26000 ft
2020/09/25 21:54 KPHL 252154Z 20007KT 10SM FEW030 BKN220 BKN260 23/16 A3009 RMK AO2 SLP189 T02280156
 
KAVP - Avoca/Wilkes B., Pennsylvania, USA
Distance from station: WNW 91mi, 147km
Updated: 09/25/2020 5:54pm
Clear
Clear
 Wind from varies
Wind: varies 6 mph , 9 km/h
Temperature: 75°F , 24°C
Dew Point: 57°F , 14°C
Humidity: 54%
Barometer: 30.07 inHg , 1018.3 hPa
Clouds: Clear
Visibility: 10 miles , 16 km
2020/09/25 21:54 KAVP 252154Z VRB05KT 10SM CLR 24/14 A3007 RMK AO2 SLP175 T02440139
KHFD - Hartford/Brainar, Connecticut, USA
Distance from station: NE 96mi, 155km
Updated: 09/25/2020 5:53pm
Clear
Clear
 Wind from S
Wind: S 10 mph , 17 km/h
Temperature: 77°F , 25°C
Dew Point: 54°F , 12°C
Humidity: 44%
Barometer: 30.06 inHg , 1017.9 hPa
Clouds: Clear
Visibility: 10 miles , 16 km
2020/09/25 21:53 KHFD 252153Z 18009KT 10SM CLR 25/12 A3006 RMK AO2 SLP178 T02500117
 
KHTO - East Hampton, New York, USA
Distance from station: E 96mi, 155km
Updated: 09/25/2020 5:55pm
Partly cloudy
Partly cloudy
 Wind from SSW
Wind: SSW 5 mph , 7 km/h
Temperature: 66°F , 19°C
Dew Point: 64°F , 18°C
Humidity: 94%
Barometer: 30.10 inHg , 1019.3 hPa
Clouds: Partly cloudy
Visibility: 10 miles , 16 km
Cloud details: Partly cloudy 700 ft
2020/09/25 21:55 KHTO 252155Z AUTO 21004KT 10SM SCT007 19/18 A3010 RMK AO2 T01890176
KACY - Atlantic City, New Jersey, USA
Distance from station: SSW 99mi, 160km
Updated: 09/25/2020 5:54pm
Clear
Clear
 Wind from SW
Wind: SW 8 mph , 13 km/h
Temperature: 70°F , 21°C
Dew Point: 61°F , 16°C
Humidity: 73%
Barometer: 30.11 inHg , 1019.6 hPa
Clouds: Clear
Visibility: 10 miles , 16 km
2020/09/25 21:54 KACY 252154Z 22007KT 10SM CLR 21/16 A3011 RMK AO2 SLP195 T02060161